Sac River (Missouri), Caplinger Mills (06919900)

StateMissouriLatestLow (235 cfs)
RiverSac RiverRatingObservedEstimated
Updated2022-09-25 22:45 (32 minutes ago)Flood - The river is flooding. Obstacles can be treacherous or deadly. The river should be avoided at this stage for casual trips and definitely for the inexperienced. Trips should be attempted only with protective gear and equipment.Flood(none)6768
Discharge235 cfs (median: 493 cfs)High - The river is high and potentially dangerous, especially for the young and / or inexperienced. Normal stream obstacles are sometimes difficult to navigate. Extended distances can be attempted, but canoe travel may not be advisable.High(none)2272
Height5.93 feetGood - Conditions are ideal for a canoe or kayak. Boats typically will drag on fewer than one-quarter of riffles, if at all, and portages are unnecessary or rare. Normal float lengths can be attempted without a problem.Good(none)1574
TrendSteady (rising over 24 hours)Low - River is low but can still be floated. Some riffles are okay but most come with significant dragging and might need a portage. Float lengths should be reduced to accommodate low flow, dragging, and portages.Low601169
USGSExternal icon USGS Site (External icon Duck Duck Go Maps)Poor - River is too low to float comfortably. Most or all riffles will drag or must be portaged and some obstacles (such as slick shelf rock) cause undue problems. Avoid the river at this stage for casual paddling trips.Poor(none)74

Trending Data

Plot Image

Trips for Sac River (Missouri), Caplinger Mills (06919900)

DateStartEndDistanceConditionDischargeHeightFishingDetails
Click for details2014-08-17 Caplinger Mills Rt N Total trip distance: 0.7 miles0.7 Low 45 4.76 Poor NoneNone Bowe, Michelle
Edmond, Brian
Edmond, Julian
Bowe, Michelle; Edmond, Brian; Edmond, Julian
Water level and flow was very low. However, much of the distance was a pool or had sufficient flow to carry the canoe. The boat ramp at Caplinger Mills was primitive and difficult to use with just a 2WD van.Water level and flow was very low. However, much of the distance was a pool or had sufficient flow to carry the canoe. The boat ramp at Caplinger Mills was primitive and difficult to use with just a 2WD van. USGS Gauge Data:
Caplinger Mills (06919900)
Discharge: 45
Height: 4.76
<b>USGS Gauge Data:</b></br />Caplinger Mills (06919900)<br />Discharge: 45<br />Height: 4.76
Source: EdmondSource: Edmond

A total of 1 rows are displayed.

Trip Summary for Sac River (Missouri), Caplinger Mills (06919900)

Miles0.7
Trips1
People3
Dates1
Years1
Months1
Rows1
Sources1

Condition Descriptions

Fishing Conditions

Fish Species

Notes

Classic Trip List

The classic River Trips application is still available for use. It is updated with the new system using a data retrofit. It is no longer maintained. The original River Trips application is no longer updated (as of 1 Dec 2016) but can be checked for errors or for the condition of the data before it was converted to the new system.

Gauge Data Table

ObservationHeightDischargeMaximum
Discharge
Minimum
Discharge
Mean
Discharge
P05P10P20P25P50
(Median)
P75P80P90P95
2022-09-25 22:45 5.93 235 42600 (1993) 67 (2014) 1630 67 70 84 95 493 1390 1660 1930 2910
2022-09-25 21:45 5.93 235 42600 (1993) 67 (2014) 1630 67 70 84 95 493 1390 1660 1930 2910
2022-09-25 20:45 5.93 235 42600 (1993) 67 (2014) 1630 67 70 84 95 493 1390 1660 1930 2910
2022-09-25 19:45 5.93 235 42600 (1993) 67 (2014) 1630 67 70 84 95 493 1390 1660 1930 2910
2022-09-25 18:45 5.96 243 42600 (1993) 67 (2014) 1630 67 70 84 95 493 1390 1660 1930 2910
2022-09-25 17:45 6.01 258 42600 (1993) 67 (2014) 1630 67 70 84 95 493 1390 1660 1930 2910
2022-09-25 16:45 6.09 283 42600 (1993) 67 (2014) 1630 67 70 84 95 493 1390 1660 1930 2910
2022-09-25 15:45 6.20 318 42600 (1993) 67 (2014) 1630 67 70 84 95 493 1390 1660 1930 2910
2022-09-25 14:45 6.34 366 42600 (1993) 67 (2014) 1630 67 70 84 95 493 1390 1660 1930 2910
2022-09-25 13:45 6.50 424 42600 (1993) 67 (2014) 1630 67 70 84 95 493 1390 1660 1930 2910
2022-09-25 12:45 6.69 497 42600 (1993) 67 (2014) 1630 67 70 84 95 493 1390 1660 1930 2910
2022-09-25 11:45 6.88 576 42600 (1993) 67 (2014) 1630 67 70 84 95 493 1390 1660 1930 2910
2022-09-25 10:45 7.06 654 42600 (1993) 67 (2014) 1630 67 70 84 95 493 1390 1660 1930 2910
2022-09-25 09:45 7.26 747 42600 (1993) 67 (2014) 1630 67 70 84 95 493 1390 1660 1930 2910
2022-09-25 08:45 7.46 845 42600 (1993) 67 (2014) 1630 67 70 84 95 493 1390 1660 1930 2910
2022-09-25 07:45 7.67 954 42600 (1993) 67 (2014) 1630 67 70 84 95 493 1390 1660 1930 2910
2022-09-25 06:45 7.90 1080 42600 (1993) 67 (2014) 1630 67 70 84 95 493 1390 1660 1930 2910
2022-09-25 05:45 8.13 1220 42600 (1993) 67 (2014) 1630 67 70 84 95 493 1390 1660 1930 2910
2022-09-25 04:45 8.34 1350 42600 (1993) 67 (2014) 1630 67 70 84 95 493 1390 1660 1930 2910
2022-09-25 03:45 8.50 1450 42600 (1993) 67 (2014) 1630 67 70 84 95 493 1390 1660 1930 2910
2022-09-25 02:45 8.54 1470 42600 (1993) 67 (2014) 1630 67 70 84 95 493 1390 1660 1930 2910
2022-09-25 01:45 8.39 1380 42600 (1993) 67 (2014) 1630 67 70 84 95 493 1390 1660 1930 2910
2022-09-25 00:45 7.90 1080 42600 (1993) 67 (2014) 1630 67 70 84 95 493 1390 1660 1930 2910
2022-09-24 23:45 6.53 435 11800 (1993) 70 (1991) 1110 71 76 88 94 587 1330 1470 2540 3990
2022-09-24 22:45 5.66 162 11800 (1993) 70 (1991) 1110 71 76 88 94 587 1330 1470 2540 3990
2022-09-24 21:45 5.64 157 11800 (1993) 70 (1991) 1110 71 76 88 94 587 1330 1470 2540 3990
2022-09-24 20:45 5.61 150 11800 (1993) 70 (1991) 1110 71 76 88 94 587 1330 1470 2540 3990
2022-09-24 19:45 5.58 143 11800 (1993) 70 (1991) 1110 71 76 88 94 587 1330 1470 2540 3990
2022-09-24 18:45 5.56 138 11800 (1993) 70 (1991) 1110 71 76 88 94 587 1330 1470 2540 3990
2022-09-24 17:45 5.56 138 11800 (1993) 70 (1991) 1110 71 76 88 94 587 1330 1470 2540 3990
2022-09-24 16:45 5.57 141 11800 (1993) 70 (1991) 1110 71 76 88 94 587 1330 1470 2540 3990
2022-09-24 15:45 5.58 143 11800 (1993) 70 (1991) 1110 71 76 88 94 587 1330 1470 2540 3990
2022-09-24 14:45 5.61 150 11800 (1993) 70 (1991) 1110 71 76 88 94 587 1330 1470 2540 3990
2022-09-24 13:45 5.64 157 11800 (1993) 70 (1991) 1110 71 76 88 94 587 1330 1470 2540 3990
2022-09-24 12:45 5.68 167 11800 (1993) 70 (1991) 1110 71 76 88 94 587 1330 1470 2540 3990
2022-09-24 11:45 5.72 177 11800 (1993) 70 (1991) 1110 71 76 88 94 587 1330 1470 2540 3990
2022-09-24 10:45 5.74 183 11800 (1993) 70 (1991) 1110 71 76 88 94 587 1330 1470 2540 3990
2022-09-24 09:45 5.76 188 11800 (1993) 70 (1991) 1110 71 76 88 94 587 1330 1470 2540 3990
2022-09-24 08:45 5.76 188 11800 (1993) 70 (1991) 1110 71 76 88 94 587 1330 1470 2540 3990
2022-09-24 07:45 5.77 190 11800 (1993) 70 (1991) 1110 71 76 88 94 587 1330 1470 2540 3990
2022-09-24 06:45 5.77 190 11800 (1993) 70 (1991) 1110 71 76 88 94 587 1330 1470 2540 3990
2022-09-24 05:45 5.77 190 11800 (1993) 70 (1991) 1110 71 76 88 94 587 1330 1470 2540 3990
2022-09-24 04:45 5.78 193 11800 (1993) 70 (1991) 1110 71 76 88 94 587 1330 1470 2540 3990
2022-09-24 03:45 5.78 193 11800 (1993) 70 (1991) 1110 71 76 88 94 587 1330 1470 2540 3990
2022-09-24 02:45 5.78 193 11800 (1993) 70 (1991) 1110 71 76 88 94 587 1330 1470 2540 3990
2022-09-24 01:45 5.78 193 11800 (1993) 70 (1991) 1110 71 76 88 94 587 1330 1470 2540 3990
2022-09-24 00:45 5.78 193 11800 (1993) 70 (1991) 1110 71 76 88 94 587 1330 1470 2540 3990
2022-09-23 23:45 5.78 193 3450 (1993) 72 (1981) 775 75 84 100 109 196 1290 1580 2300 2940
2022-09-23 22:45 5.77 190 3450 (1993) 72 (1981) 775 75 84 100 109 196 1290 1580 2300 2940
2022-09-23 21:45 5.77 190 3450 (1993) 72 (1981) 775 75 84 100 109 196 1290 1580 2300 2940
2022-09-23 20:45 5.76 188 3450 (1993) 72 (1981) 775 75 84 100 109 196 1290 1580 2300 2940
2022-09-23 19:45 5.74 183 3450 (1993) 72 (1981) 775 75 84 100 109 196 1290 1580 2300 2940
2022-09-23 18:45 5.73 180 3450 (1993) 72 (1981) 775 75 84 100 109 196 1290 1580 2300 2940
2022-09-23 17:45 5.73 180 3450 (1993) 72 (1981) 775 75 84 100 109 196 1290 1580 2300 2940
2022-09-23 16:45 5.74 183 3450 (1993) 72 (1981) 775 75 84 100 109 196 1290 1580 2300 2940
2022-09-23 15:45 5.77 190 3450 (1993) 72 (1981) 775 75 84 100 109 196 1290 1580 2300 2940
2022-09-23 14:45 5.79 196 3450 (1993) 72 (1981) 775 75 84 100 109 196 1290 1580 2300 2940
2022-09-23 13:45 5.80 198 3450 (1993) 72 (1981) 775 75 84 100 109 196 1290 1580 2300 2940
2022-09-23 12:45 5.82 204 3450 (1993) 72 (1981) 775 75 84 100 109 196 1290 1580 2300 2940
2022-09-23 11:45 5.83 207 3450 (1993) 72 (1981) 775 75 84 100 109 196 1290 1580 2300 2940
2022-09-23 10:45 5.84 209 3450 (1993) 72 (1981) 775 75 84 100 109 196 1290 1580 2300 2940
2022-09-23 09:45 5.85 212 3450 (1993) 72 (1981) 775 75 84 100 109 196 1290 1580 2300 2940
2022-09-23 08:45 5.86 215 3450 (1993) 72 (1981) 775 75 84 100 109 196 1290 1580 2300 2940
2022-09-23 07:45 5.88 220 3450 (1993) 72 (1981) 775 75 84 100 109 196 1290 1580 2300 2940
2022-09-23 06:45 5.88 220 3450 (1993) 72 (1981) 775 75 84 100 109 196 1290 1580 2300 2940
2022-09-23 05:45 5.89 223 3450 (1993) 72 (1981) 775 75 84 100 109 196 1290 1580 2300 2940
2022-09-23 04:45 5.90 226 3450 (1993) 72 (1981) 775 75 84 100 109 196 1290 1580 2300 2940
2022-09-23 03:45 5.92 232 3450 (1993) 72 (1981) 775 75 84 100 109 196 1290 1580 2300 2940
2022-09-23 02:45 5.93 235 3450 (1993) 72 (1981) 775 75 84 100 109 196 1290 1580 2300 2940
2022-09-23 01:45 5.95 240 3450 (1993) 72 (1981) 775 75 84 100 109 196 1290 1580 2300 2940
2022-09-23 00:45 5.97 246 3450 (1993) 72 (1981) 775 75 84 100 109 196 1290 1580 2300 2940
2022-09-22 23:45 6.00 255 3290 (1993) 71 (1981) 778 74 84 101 113 425 1150 1600 1880 2760
2022-09-22 22:45 6.03 264 3290 (1993) 71 (1981) 778 74 84 101 113 425 1150 1600 1880 2760
2022-09-22 21:45 6.06 274 3290 (1993) 71 (1981) 778 74 84 101 113 425 1150 1600 1880 2760
2022-09-22 20:45 6.11 289 3290 (1993) 71 (1981) 778 74 84 101 113 425 1150 1600 1880 2760
2022-09-22 19:45 6.16 305 3290 (1993) 71 (1981) 778 74 84 101 113 425 1150 1600 1880 2760
2022-09-22 18:45 6.22 325 3290 (1993) 71 (1981) 778 74 84 101 113 425 1150 1600 1880 2760
2022-09-22 17:45 6.30 352 3290 (1993) 71 (1981) 778 74 84 101 113 425 1150 1600 1880 2760
2022-09-22 16:45 6.39 384 3290 (1993) 71 (1981) 778 74 84 101 113 425 1150 1600 1880 2760
2022-09-22 15:45 6.52 431 3290 (1993) 71 (1981) 778 74 84 101 113 425 1150 1600 1880 2760
2022-09-22 14:45 6.66 485 3290 (1993) 71 (1981) 778 74 84 101 113 425 1150 1600 1880 2760
2022-09-22 13:45 6.81 546 3290 (1993) 71 (1981) 778 74 84 101 113 425 1150 1600 1880 2760
2022-09-22 12:45 6.96 610 3290 (1993) 71 (1981) 778 74 84 101 113 425 1150 1600 1880 2760
2022-09-22 11:45 7.14 691 3290 (1993) 71 (1981) 778 74 84 101 113 425 1150 1600 1880 2760
2022-09-22 10:45 7.32 776 3290 (1993) 71 (1981) 778 74 84 101 113 425 1150 1600 1880 2760
2022-09-22 09:45 7.54 886 3290 (1993) 71 (1981) 778 74 84 101 113 425 1150 1600 1880 2760
2022-09-22 08:45 7.78 1020 3290 (1993) 71 (1981) 778 74 84 101 113 425 1150 1600 1880 2760
2022-09-22 07:45 8.05 1170 3290 (1993) 71 (1981) 778 74 84 101 113 425 1150 1600 1880 2760
2022-09-22 06:45 8.34 1350 3290 (1993) 71 (1981) 778 74 84 101 113 425 1150 1600 1880 2760
2022-09-22 05:45 8.64 1530 3290 (1993) 71 (1981) 778 74 84 101 113 425 1150 1600 1880 2760
2022-09-22 04:45 8.94 1720 3290 (1993) 71 (1981) 778 74 84 101 113 425 1150 1600 1880 2760
2022-09-22 03:45 9.20 1900 3290 (1993) 71 (1981) 778 74 84 101 113 425 1150 1600 1880 2760
2022-09-22 02:45 9.35 2000 3290 (1993) 71 (1981) 778 74 84 101 113 425 1150 1600 1880 2760
2022-09-22 01:45 9.37 2010 3290 (1993) 71 (1981) 778 74 84 101 113 425 1150 1600 1880 2760
2022-09-22 00:45 9.14 1860 3290 (1993) 71 (1981) 778 74 84 101 113 425 1150 1600 1880 2760
2022-09-21 23:45 8.51 1450 3440 (1993) 70 (1981) 760 77 87 103 111 269 1420 1530 1760 2830
2022-09-21 22:45 7.08 663 3440 (1993) 70 (1981) 760 77 87 103 111 269 1420 1530 1760 2830
2022-09-21 21:45 6.06 274 3440 (1993) 70 (1981) 760 77 87 103 111 269 1420 1530 1760 2830
2022-09-21 20:45 6.09 283 3440 (1993) 70 (1981) 760 77 87 103 111 269 1420 1530 1760 2830
2022-09-21 19:45 6.15 302 3440 (1993) 70 (1981) 760 77 87 103 111 269 1420 1530 1760 2830
2022-09-21 18:45 6.21 322 3440 (1993) 70 (1981) 760 77 87 103 111 269 1420 1530 1760 2830
2022-09-21 17:45 6.27 342 3440 (1993) 70 (1981) 760 77 87 103 111 269 1420 1530 1760 2830
2022-09-21 16:45 6.37 376 3440 (1993) 70 (1981) 760 77 87 103 111 269 1420 1530 1760 2830
2022-09-21 15:45 6.48 416 3440 (1993) 70 (1981) 760 77 87 103 111 269 1420 1530 1760 2830
2022-09-21 14:45 6.63 473 3440 (1993) 70 (1981) 760 77 87 103 111 269 1420 1530 1760 2830
2022-09-21 13:45 6.79 538 3440 (1993) 70 (1981) 760 77 87 103 111 269 1420 1530 1760 2830
2022-09-21 12:45 6.98 619 3440 (1993) 70 (1981) 760 77 87 103 111 269 1420 1530 1760 2830
2022-09-21 11:45 7.20 719 3440 (1993) 70 (1981) 760 77 87 103 111 269 1420 1530 1760 2830
2022-09-21 10:45 7.43 830 3440 (1993) 70 (1981) 760 77 87 103 111 269 1420 1530 1760 2830
2022-09-21 09:45 7.69 965 3440 (1993) 70 (1981) 760 77 87 103 111 269 1420 1530 1760 2830
2022-09-21 08:45 7.99 1140 3440 (1993) 70 (1981) 760 77 87 103 111 269 1420 1530 1760 2830
2022-09-21 07:45 8.31 1330 3440 (1993) 70 (1981) 760 77 87 103 111 269 1420 1530 1760 2830
2022-09-21 06:45 8.65 1540 3440 (1993) 70 (1981) 760 77 87 103 111 269 1420 1530 1760 2830
2022-09-21 05:45 9.02 1780 3440 (1993) 70 (1981) 760 77 87 103 111 269 1420 1530 1760 2830
2022-09-21 04:45 9.37 2010 3440 (1993) 70 (1981) 760 77 87 103 111 269 1420 1530 1760 2830
2022-09-21 03:45 9.68 2230 3440 (1993) 70 (1981) 760 77 87 103 111 269 1420 1530 1760 2830
2022-09-21 02:45 9.88 2370 3440 (1993) 70 (1981) 760 77 87 103 111 269 1420 1530 1760 2830
2022-09-21 01:45 9.91 2400 3440 (1993) 70 (1981) 760 77 87 103 111 269 1420 1530 1760 2830
2022-09-21 00:45 9.66 2210 3440 (1993) 70 (1981) 760 77 87 103 111 269 1420 1530 1760 2830
2022-09-20 23:45 8.98 1750 4720 (1993) 63 (2006) 865 68 81 102 114 501 1500 1550 2040 2560
2022-09-20 22:45 7.43 830 4720 (1993) 63 (2006) 865 68 81 102 114 501 1500 1550 2040 2560
2022-09-20 21:45 5.97 246 4720 (1993) 63 (2006) 865 68 81 102 114 501 1500 1550 2040 2560
2022-09-20 20:45 5.98 249 4720 (1993) 63 (2006) 865 68 81 102 114 501 1500 1550 2040 2560
2022-09-20 19:45 6.00 255 4720 (1993) 63 (2006) 865 68 81 102 114 501 1500 1550 2040 2560
2022-09-20 18:45 6.05 270 4720 (1993) 63 (2006) 865 68 81 102 114 501 1500 1550 2040 2560
2022-09-20 17:45 6.11 289 4720 (1993) 63 (2006) 865 68 81 102 114 501 1500 1550 2040 2560
2022-09-20 16:45 6.22 325 4720 (1993) 63 (2006) 865 68 81 102 114 501 1500 1550 2040 2560
2022-09-20 15:45 6.34 366 4720 (1993) 63 (2006) 865 68 81 102 114 501 1500 1550 2040 2560
2022-09-20 14:45 6.49 420 4720 (1993) 63 (2006) 865 68 81 102 114 501 1500 1550 2040 2560
2022-09-20 13:45 6.65 481 4720 (1993) 63 (2006) 865 68 81 102 114 501 1500 1550 2040 2560
2022-09-20 12:45 6.82 550 4720 (1993) 63 (2006) 865 68 81 102 114 501 1500 1550 2040 2560
2022-09-20 11:45 7.01 632 4720 (1993) 63 (2006) 865 68 81 102 114 501 1500 1550 2040 2560
2022-09-20 10:45 7.22 728 4720 (1993) 63 (2006) 865 68 81 102 114 501 1500 1550 2040 2560
2022-09-20 09:45 7.45 840 4720 (1993) 63 (2006) 865 68 81 102 114 501 1500 1550 2040 2560
2022-09-20 08:45 7.70 971 4720 (1993) 63 (2006) 865 68 81 102 114 501 1500 1550 2040 2560
2022-09-20 07:45 7.99 1140 4720 (1993) 63 (2006) 865 68 81 102 114 501 1500 1550 2040 2560
2022-09-20 06:45 8.30 1330 4720 (1993) 63 (2006) 865 68 81 102 114 501 1500 1550 2040 2560
2022-09-20 05:45 8.64 1530 4720 (1993) 63 (2006) 865 68 81 102 114 501 1500 1550 2040 2560
2022-09-20 04:45 9.00 1760 4720 (1993) 63 (2006) 865 68 81 102 114 501 1500 1550 2040 2560
2022-09-20 03:45 9.35 2000 4720 (1993) 63 (2006) 865 68 81 102 114 501 1500 1550 2040 2560
2022-09-20 02:45 9.64 2200 4720 (1993) 63 (2006) 865 68 81 102 114 501 1500 1550 2040 2560
2022-09-20 01:45 9.84 2340 4720 (1993) 63 (2006) 865 68 81 102 114 501 1500 1550 2040 2560
2022-09-20 00:45 9.86 2360 4720 (1993) 63 (2006) 865 68 81 102 114 501 1500 1550 2040 2560
2022-09-19 23:45 9.61 2180 4830 (1986) 64 (2006) 929 68 84 100 124 408 1280 1740 2550 3350
2022-09-19 22:45 8.92 1710 4830 (1986) 64 (2006) 929 68 84 100 124 408 1280 1740 2550 3350
2022-09-19 21:45 7.36 796 4830 (1986) 64 (2006) 929 68 84 100 124 408 1280 1740 2550 3350
2022-09-19 20:45 5.96 243 4830 (1986) 64 (2006) 929 68 84 100 124 408 1280 1740 2550 3350
2022-09-19 19:45 5.96 243 4830 (1986) 64 (2006) 929 68 84 100 124 408 1280 1740 2550 3350
2022-09-19 18:45 6.00 255 4830 (1986) 64 (2006) 929 68 84 100 124 408 1280 1740 2550 3350
2022-09-19 17:45 6.05 270 4830 (1986) 64 (2006) 929 68 84 100 124 408 1280 1740 2550 3350
2022-09-19 16:45 6.14 299 4830 (1986) 64 (2006) 929 68 84 100 124 408 1280 1740 2550 3350
2022-09-19 15:45 6.24 332 4830 (1986) 64 (2006) 929 68 84 100 124 408 1280 1740 2550 3350
2022-09-19 14:45 6.38 380 4830 (1986) 64 (2006) 929 68 84 100 124 408 1280 1740 2550 3350
2022-09-19 13:45 6.53 435 4830 (1986) 64 (2006) 929 68 84 100 124 408 1280 1740 2550 3350
2022-09-19 12:45 6.71 505 4830 (1986) 64 (2006) 929 68 84 100 124 408 1280 1740 2550 3350
2022-09-19 11:45 6.88 576 4830 (1986) 64 (2006) 929 68 84 100 124 408 1280 1740 2550 3350
2022-09-19 10:45 7.06 654 4830 (1986) 64 (2006) 929 68 84 100 124 408 1280 1740 2550 3350
2022-09-19 09:45 7.24 738 4830 (1986) 64 (2006) 929 68 84 100 124 408 1280 1740 2550 3350
2022-09-19 08:45 7.44 835 4830 (1986) 64 (2006) 929 68 84 100 124 408 1280 1740 2550 3350
2022-09-19 07:45 7.66 949 4830 (1986) 64 (2006) 929 68 84 100 124 408 1280 1740 2550 3350
2022-09-19 06:45 7.90 1080 4830 (1986) 64 (2006) 929 68 84 100 124 408 1280 1740 2550 3350
2022-09-19 05:45 8.13 1220 4830 (1986) 64 (2006) 929 68 84 100 124 408 1280 1740 2550 3350
2022-09-19 04:45 8.35 1360 4830 (1986) 64 (2006) 929 68 84 100 124 408 1280 1740 2550 3350
2022-09-19 03:45 8.52 1460 4830 (1986) 64 (2006) 929 68 84 100 124 408 1280 1740 2550 3350
2022-09-19 02:45 8.58 1500 4830 (1986) 64 (2006) 929 68 84 100 124 408 1280 1740 2550 3350
2022-09-19 01:45 8.46 1420 4830 (1986) 64 (2006) 929 68 84 100 124 408 1280 1740 2550 3350
2022-09-19 00:45 8.03 1160 4830 (1986) 64 (2006) 929 68 84 100 124 408 1280 1740 2550 3350
2022-09-18 23:45 6.91 588 4230 (1986) 56 (1984) 983 65 69 93 107 664 1360 1690 2590 3380
2022-09-18 22:45 5.79 196 4230 (1986) 56 (1984) 983 65 69 93 107 664 1360 1690 2590 3380
2022-09-18 21:45 5.76 188 4230 (1986) 56 (1984) 983 65 69 93 107 664 1360 1690 2590 3380
2022-09-18 20:45 5.75 185 4230 (1986) 56 (1984) 983 65 69 93 107 664 1360 1690 2590 3380
2022-09-18 19:45 5.73 180 4230 (1986) 56 (1984) 983 65 69 93 107 664 1360 1690 2590 3380
2022-09-18 18:45 5.72 177 4230 (1986) 56 (1984) 983 65 69 93 107 664 1360 1690 2590 3380
2022-09-18 17:45 5.72 177 4230 (1986) 56 (1984) 983 65 69 93 107 664 1360 1690 2590 3380
2022-09-18 16:45 5.74 183 4230 (1986) 56 (1984) 983 65 69 93 107 664 1360 1690 2590 3380
2022-09-18 15:45 5.76 188 4230 (1986) 56 (1984) 983 65 69 93 107 664 1360 1690 2590 3380
2022-09-18 14:45 5.77 190 4230 (1986) 56 (1984) 983 65 69 93 107 664 1360 1690 2590 3380
2022-09-18 13:45 5.80 198 4230 (1986) 56 (1984) 983 65 69 93 107 664 1360 1690 2590 3380
2022-09-18 12:45 5.83 207 4230 (1986) 56 (1984) 983 65 69 93 107 664 1360 1690 2590 3380
2022-09-18 11:45 5.86 215 4230 (1986) 56 (1984) 983 65 69 93 107 664 1360 1690 2590 3380
2022-09-18 10:45 5.88 220 4230 (1986) 56 (1984) 983 65 69 93 107 664 1360 1690 2590 3380
2022-09-18 09:45 5.89 223 4230 (1986) 56 (1984) 983 65 69 93 107 664 1360 1690 2590 3380
2022-09-18 08:45 5.90 226 4230 (1986) 56 (1984) 983 65 69 93 107 664 1360 1690 2590 3380
2022-09-18 07:45 5.91 229 4230 (1986) 56 (1984) 983 65 69 93 107 664 1360 1690 2590 3380
2022-09-18 06:45 5.92 232 4230 (1986) 56 (1984) 983 65 69 93 107 664 1360 1690 2590 3380
2022-09-18 05:45 5.93 235 4230 (1986) 56 (1984) 983 65 69 93 107 664 1360 1690 2590 3380
2022-09-18 04:45 5.95 240 4230 (1986) 56 (1984) 983 65 69 93 107 664 1360 1690 2590 3380
2022-09-18 03:45 5.96 243 4230 (1986) 56 (1984) 983 65 69 93 107 664 1360 1690 2590 3380
2022-09-18 02:45 5.97 246 4230 (1986) 56 (1984) 983 65 69 93 107 664 1360 1690 2590 3380
2022-09-18 01:45 5.99 252 4230 (1986) 56 (1984) 983 65 69 93 107 664 1360 1690 2590 3380
2022-09-18 00:45 6.00 255 4230 (1986) 56 (1984) 983 65 69 93 107 664 1360 1690 2590 3380

A total of 191 rows are displayed for years 1975 through 2021.